createdAt,value
2019-05-25T00:00:08.725Z,1016.43
2019-05-25T00:02:38.472Z,1010.20
2019-05-25T00:05:08.028Z,1052.57
2019-05-25T00:07:37.063Z,1001.57
2019-05-25T00:10:06.545Z,993.73
2019-05-25T00:12:35.591Z,987.77
2019-05-25T00:15:06.138Z,992.50
2019-05-25T00:17:35.176Z,1007.40
2019-05-25T00:20:05.606Z,997.00
2019-05-25T00:22:34.629Z,1014.17
2019-05-25T00:25:04.439Z,982.07
2019-05-25T00:27:33.576Z,966.97
2019-05-25T00:30:04.349Z,960.70
2019-05-25T00:32:34.048Z,942.53
2019-05-25T00:35:03.827Z,962.97
2019-05-25T00:37:34.344Z,963.80
2019-05-25T00:40:28.441Z,897.67
2019-05-25T00:42:57.501Z,914.60
2019-05-25T00:45:27.149Z,914.27
2019-05-25T00:54:30.896Z,916.87
2019-05-25T00:57:00.225Z,855.53
2019-05-25T00:59:29.795Z,879.53
2019-05-25T01:01:59.497Z,876.03
2019-05-25T01:04:28.531Z,887.43
2019-05-25T01:06:57.573Z,870.27
2019-05-25T01:09:27.363Z,932.13
2019-05-25T01:11:56.400Z,929.70
2019-05-25T01:14:25.426Z,920.30
2019-05-25T01:16:54.888Z,935.07
2019-05-25T01:19:24.603Z,924.47
2019-05-25T01:21:55.204Z,967.43
2019-05-25T01:24:24.323Z,951.37
2019-05-25T01:26:54.331Z,912.90
2019-05-25T01:29:24.078Z,909.80
2019-05-25T01:31:53.148Z,955.23
2019-05-25T01:34:22.671Z,978.37
2019-05-25T01:36:51.756Z,944.07
2019-05-25T01:39:20.772Z,919.30
2019-05-25T01:41:51.118Z,990.53
2019-05-25T01:44:20.205Z,1030.27
2019-05-25T01:46:49.786Z,1004.63
2019-05-25T01:49:19.665Z,975.67
2019-05-25T01:51:49.086Z,1015.27
2019-05-25T01:54:18.108Z,1012.73
2019-05-25T01:56:47.179Z,1017.17
2019-05-25T01:59:16.720Z,1031.13
2019-05-25T02:01:45.803Z,990.60
2019-05-25T02:04:14.881Z,990.33
2019-05-25T02:06:44.476Z,1008.37
2019-05-25T02:09:13.543Z,1038.87
2019-05-25T02:11:42.729Z,983.27
2019-05-25T02:14:11.771Z,1010.17
2019-05-25T02:16:40.946Z,1013.47
2019-05-25T02:19:09.997Z,1026.93
2019-05-25T02:21:39.180Z,1076.40
2019-05-25T02:24:08.235Z,1007.30
2019-05-25T02:26:37.276Z,1067.43
2019-05-25T02:29:06.314Z,1063.77
2019-05-25T02:31:35.326Z,1042.27
2019-05-25T02:34:04.461Z,1037.73
2019-05-25T02:36:33.585Z,1034.60
2019-05-25T02:39:02.971Z,1019.70
2019-05-25T02:41:32.008Z,1032.83
2019-05-25T02:44:01.068Z,995.70
2019-05-25T02:46:30.435Z,978.80
2019-05-25T02:48:59.716Z,1005.43
2019-05-25T02:51:28.751Z,1019.37
2019-05-25T02:53:57.900Z,1085.47
2019-05-25T02:56:26.945Z,1089.67
2019-05-25T02:58:56.324Z,1090.27
2019-05-25T03:01:26.337Z,1066.40
2019-05-25T03:03:55.387Z,1035.70
2019-05-25T03:06:24.743Z,1042.50
2019-05-25T03:08:54.068Z,1074.90
2019-05-25T03:11:23.388Z,1072.50
2019-05-25T03:13:53.001Z,1068.93
2019-05-25T03:16:22.738Z,1053.20
2019-05-25T03:18:51.840Z,1045.40
2019-05-25T03:21:21.913Z,1034.73
2019-05-25T03:23:51.274Z,1040.33
2019-05-25T03:26:20.326Z,1048.37
2019-05-25T03:28:49.420Z,1026.60
2019-05-25T03:31:18.438Z,1007.83
2019-05-25T03:33:47.500Z,1030.40
2019-05-25T03:36:16.539Z,997.53
2019-05-25T03:38:45.562Z,968.63
2019-05-25T03:41:14.616Z,972.50
2019-05-25T03:43:44.544Z,965.00
2019-05-25T03:46:14.297Z,1011.20
2019-05-25T03:48:43.333Z,999.20
2019-05-25T03:51:12.453Z,991.67
2019-05-25T03:53:41.422Z,943.40
2019-05-25T03:56:10.481Z,962.53
2019-05-25T03:58:39.515Z,965.40
2019-05-25T04:01:09.420Z,967.73
2019-05-25T04:03:38.502Z,954.03
2019-05-25T04:06:07.769Z,975.20
2019-05-25T04:08:46.661Z,961.40
2019-05-25T04:11:15.727Z,966.97
2019-05-25T04:13:44.748Z,991.63
2019-05-25T04:16:14.024Z,998.57
2019-05-25T04:18:43.085Z,1005.77
2019-05-25T04:21:12.191Z,971.93
2019-05-25T04:23:41.770Z,972.57
2019-05-25T04:26:21.928Z,995.60
2019-05-25T04:28:41.762Z,1005.63
2019-05-25T04:31:10.851Z,1038.67
2019-05-25T04:37:09.398Z,956.23
2019-05-25T04:39:38.666Z,983.37
2019-05-25T04:42:07.711Z,1000.53
2019-05-25T04:44:36.974Z,1055.07
2019-05-25T04:47:05.999Z,979.03
2019-05-25T04:49:35.067Z,987.47
2019-05-25T04:52:04.844Z,986.60
2019-05-25T04:54:33.885Z,1056.10
2019-05-25T04:57:03.137Z,1035.47
2019-05-25T04:59:32.999Z,992.03
2019-05-25T05:02:02.043Z,1053.07
2019-05-25T05:04:31.127Z,1053.33
2019-05-25T05:07:00.245Z,1024.07
2019-05-25T05:09:30.039Z,1086.50
2019-05-25T05:11:59.086Z,1013.77
2019-05-25T05:14:28.396Z,1095.17
2019-05-25T05:17:00.748Z,1034.37
2019-05-25T05:19:30.666Z,1082.77
2019-05-25T05:21:59.769Z,1062.13
2019-05-25T05:24:28.804Z,1064.47
2019-05-25T05:26:57.909Z,1066.70
2019-05-25T05:29:27.717Z,1051.17
2019-05-25T05:31:56.750Z,1031.80
2019-05-25T05:34:25.872Z,1063.73
2019-05-25T05:36:55.213Z,1083.20
2019-05-25T05:39:24.316Z,1075.23
2019-05-25T05:41:54.771Z,1069.33
2019-05-25T05:44:24.693Z,1062.30
2019-05-25T05:46:56.292Z,1113.80
2019-05-25T05:49:25.707Z,1101.70
2019-05-25T05:51:55.054Z,1090.90
2019-05-25T05:54:24.412Z,1158.97
2019-05-25T05:56:53.681Z,1136.20
2019-05-25T05:59:22.708Z,1180.97
2019-05-25T06:01:52.954Z,1195.23
2019-05-25T06:04:21.944Z,1187.17
2019-05-25T06:06:51.099Z,1151.27
2019-05-25T06:09:20.226Z,1132.40
2019-05-25T06:11:51.059Z,1184.50
2019-05-25T06:14:20.323Z,1195.87
2019-05-25T06:16:49.905Z,1137.23
2019-05-25T06:19:19.346Z,1190.90
2019-05-25T06:21:48.656Z,1168.20
2019-05-25T06:24:17.703Z,1175.37
2019-05-25T06:26:46.763Z,1130.23
2019-05-25T06:29:16.649Z,1169.73
2019-05-25T06:31:45.999Z,1128.83
2019-05-25T06:34:15.829Z,1159.47
2019-05-25T06:36:44.857Z,1139.50
2019-05-25T06:39:13.891Z,1166.33
2019-05-25T06:41:42.952Z,1179.73
2019-05-25T06:44:12.171Z,1193.07
2019-05-25T06:46:41.301Z,1164.47
2019-05-25T06:49:11.045Z,1115.70
2019-05-25T06:51:40.097Z,1182.37
2019-05-25T06:54:09.174Z,1137.13
2019-05-25T06:56:38.729Z,1137.20
2019-05-25T06:59:07.823Z,1171.57
2019-05-25T07:01:36.852Z,1132.90
2019-05-25T07:04:05.934Z,1125.57
2019-05-25T07:06:35.056Z,1117.00
2019-05-25T07:09:06.676Z,1116.17
2019-05-25T07:11:35.750Z,1098.87
2019-05-25T07:14:05.402Z,1127.87
2019-05-25T07:16:34.466Z,1065.40
2019-05-25T07:19:04.139Z,1123.83
2019-05-25T07:21:34.206Z,1158.30
2019-05-25T07:24:03.873Z,1140.23
2019-05-25T07:26:33.041Z,1086.43
2019-05-25T07:29:02.976Z,1142.20
2019-05-25T07:31:32.098Z,1111.00
2019-05-25T07:34:01.616Z,1159.00
2019-05-25T07:36:31.635Z,1197.43
2019-05-25T07:39:01.471Z,1280.73
2019-05-25T07:41:32.761Z,1125.27
2019-05-25T07:44:02.214Z,1155.80
2019-05-25T07:46:32.915Z,1136.97
2019-05-25T07:49:02.021Z,1143.83
2019-05-25T07:51:31.054Z,1118.27
2019-05-25T07:54:00.141Z,1123.20
2019-05-25T07:56:29.196Z,1181.20
2019-05-25T07:58:58.219Z,1089.90
2019-05-25T08:01:28.030Z,1115.77
2019-05-25T08:03:57.129Z,1097.40
2019-05-25T08:06:26.173Z,1125.60
2019-05-25T08:08:55.472Z,1145.77
2019-05-25T08:11:24.537Z,1132.70
2019-05-25T08:13:54.408Z,1153.30
2019-05-25T08:16:23.505Z,1171.10
2019-05-25T08:18:52.516Z,1119.03
2019-05-25T08:21:21.581Z,1147.00
2019-05-25T08:23:50.680Z,1158.10
2019-05-25T08:26:19.863Z,1154.30
2019-05-25T08:28:48.896Z,1194.83
2019-05-25T08:31:18.610Z,1107.90
2019-05-25T08:33:47.655Z,1155.20
2019-05-25T08:36:16.826Z,1125.57
2019-05-25T08:38:46.257Z,1121.87
2019-05-25T08:41:15.328Z,1171.10
2019-05-25T08:43:45.198Z,1111.73
2019-05-25T08:46:14.696Z,1118.53
2019-05-25T08:48:43.728Z,1149.60
2019-05-25T08:51:13.346Z,1103.93
2019-05-25T08:53:46.599Z,1103.20
2019-05-25T08:56:15.826Z,1082.73
2019-05-25T08:58:48.440Z,1069.83
2019-05-25T09:01:15.667Z,1101.03
2019-05-25T09:03:45.488Z,1110.03
2019-05-25T09:06:14.534Z,1123.47
2019-05-25T09:08:43.609Z,1076.70
2019-05-25T09:11:13.432Z,1096.90
2019-05-25T09:13:42.522Z,1124.95
2019-05-25T09:16:11.916Z,1069.53
2019-05-25T09:18:41.816Z,1035.83
2019-05-25T09:21:10.923Z,1006.90
2019-05-25T09:23:40.322Z,1008.60
2019-05-25T09:26:13.267Z,1092.23
2019-05-25T09:28:40.825Z,988.50
2019-05-25T09:31:09.915Z,1018.38
2019-05-25T09:33:39.847Z,937.57
2019-05-25T09:36:08.901Z,901.88
2019-05-25T09:38:37.939Z,877.20
2019-05-25T09:41:06.996Z,884.37
2019-05-25T09:43:36.073Z,948.15
2019-05-25T09:46:05.166Z,870.57
2019-05-25T09:48:37.938Z,1001.63
2019-05-25T09:51:05.109Z,966.13
2019-05-25T09:53:34.476Z,911.90
2019-05-25T09:56:04.309Z,919.97
2019-05-25T09:58:33.736Z,925.92
2019-05-25T10:01:02.765Z,1054.33
2019-05-25T10:03:32.080Z,996.18
2019-05-25T10:06:10.206Z,947.12
2019-05-25T10:08:31.772Z,910.43
2019-05-25T10:11:00.829Z,891.47
2019-05-25T10:13:30.252Z,862.55
2019-05-25T10:15:59.283Z,839.38
2019-05-25T10:18:28.605Z,856.02
2019-05-25T10:20:57.663Z,972.17
2019-05-25T10:23:26.709Z,908.77
2019-05-25T10:25:55.808Z,970.25
2019-05-25T10:28:25.052Z,944.30
2019-05-25T10:30:54.714Z,939.05
2019-05-25T10:33:24.096Z,908.15
2019-05-25T10:35:57.998Z,902.22
2019-05-25T10:38:24.149Z,888.63
2019-05-25T10:40:53.288Z,805.40
2019-05-25T10:43:22.314Z,845.92
2019-05-25T10:45:51.445Z,909.95
2019-05-25T10:48:20.668Z,910.10
2019-05-25T10:50:49.957Z,875.58
2019-05-25T10:53:19.107Z,920.45
2019-05-25T10:55:48.140Z,905.85
2019-05-25T10:58:17.200Z,907.95
2019-05-25T11:00:46.238Z,941.17
2019-05-25T11:03:15.301Z,908.87
2019-05-25T11:05:44.331Z,917.00
2019-05-25T11:08:13.477Z,916.38
2019-05-25T11:10:42.548Z,933.98
2019-05-25T11:13:12.403Z,887.80
2019-05-25T11:15:41.524Z,1000.48
2019-05-25T11:18:10.576Z,937.40
2019-05-25T11:20:39.687Z,957.95
2019-05-25T11:23:08.897Z,941.83
2019-05-25T11:25:37.947Z,957.13
2019-05-25T11:28:08.414Z,935.77
2019-05-25T11:30:37.726Z,988.05
2019-05-25T11:33:07.284Z,881.78
2019-05-25T11:35:36.345Z,964.05
2019-05-25T11:38:05.791Z,969.60
2019-05-25T11:40:34.870Z,949.85
2019-05-25T11:43:04.516Z,935.35
2019-05-25T11:45:33.556Z,948.02
2019-05-25T11:48:02.626Z,909.50
2019-05-25T11:50:31.828Z,949.25
2019-05-25T11:53:00.822Z,917.42
2019-05-25T11:55:29.873Z,980.57
2019-05-25T11:57:58.921Z,923.80
2019-05-25T12:00:28.027Z,1016.08
2019-05-25T12:02:58.419Z,976.07
2019-05-25T12:05:27.459Z,997.17
2019-05-25T12:07:57.024Z,970.88
2019-05-25T12:10:26.204Z,1000.70
2019-05-25T12:12:55.478Z,992.58
2019-05-25T12:15:25.431Z,1002.70
2019-05-25T12:17:56.545Z,1005.53
2019-05-25T12:20:25.797Z,997.78
2019-05-25T12:22:54.880Z,1001.53
2019-05-25T12:25:23.923Z,999.13
2019-05-25T12:27:52.952Z,959.65
2019-05-25T12:30:22.068Z,998.12
2019-05-25T12:32:51.104Z,952.50
2019-05-25T12:35:20.149Z,1008.85
2019-05-25T12:37:49.305Z,1004.50
2019-05-25T12:40:18.634Z,1007.43
2019-05-25T12:42:47.733Z,949.17
2019-05-25T12:45:17.848Z,968.17
2019-05-25T12:47:46.916Z,970.03
2019-05-25T12:50:16.414Z,989.93
2019-05-25T12:52:46.251Z,1012.52
2019-05-25T12:55:16.409Z,1015.45
2019-05-25T12:57:46.172Z,998.30
2019-05-25T13:00:17.146Z,958.27
2019-05-25T13:06:18.204Z,1000.30
2019-05-25T13:08:46.137Z,1002.68
2019-05-25T13:11:15.855Z,970.75
2019-05-25T13:13:44.907Z,937.20
2019-05-25T13:16:14.320Z,940.25
2019-05-25T13:18:43.712Z,886.48
2019-05-25T13:21:12.788Z,913.45
2019-05-25T13:23:42.536Z,923.32
2019-05-25T13:26:11.604Z,929.92
2019-05-25T13:28:40.665Z,970.90
2019-05-25T13:31:11.953Z,900.65
2019-05-25T13:33:40.839Z,944.97
2019-05-25T13:36:09.897Z,952.40
2019-05-25T13:38:38.938Z,980.93
2019-05-25T13:41:07.975Z,915.23
2019-05-25T13:43:37.043Z,932.75
2019-05-25T13:46:06.145Z,1006.90
2019-05-25T13:48:35.237Z,987.57
2019-05-25T13:51:04.452Z,1004.35
2019-05-25T13:53:33.501Z,983.77
2019-05-25T13:56:02.589Z,1015.98
2019-05-25T13:58:31.657Z,969.73
2019-05-25T14:01:00.769Z,984.73
2019-05-25T14:03:29.961Z,1006.78
2019-05-25T14:06:00.778Z,1033.80
2019-05-25T14:08:29.814Z,1007.77
2019-05-25T14:10:58.912Z,988.52
2019-05-25T14:13:28.091Z,1034.13
2019-05-25T14:16:06.649Z,1045.13
2019-05-25T14:18:29.883Z,1017.80
2019-05-25T14:20:59.835Z,983.68
2019-05-25T14:23:28.938Z,1009.55
2019-05-25T14:25:57.980Z,1127.97
2019-05-25T14:28:27.110Z,1027.20
2019-05-25T14:30:56.155Z,1208.95
2019-05-25T14:33:25.696Z,1117.40
2019-05-25T14:35:54.750Z,1057.00
2019-05-25T14:39:30.900Z,1029.45
2019-05-25T14:41:59.983Z,1083.35
2019-05-25T14:44:29.180Z,1070.23
2019-05-25T14:46:58.916Z,1068.63
2019-05-25T14:49:28.197Z,1043.78
2019-05-25T14:51:57.357Z,1027.45
2019-05-25T14:54:26.771Z,1040.42
2019-05-25T14:57:07.797Z,949.05
2019-05-25T14:59:36.826Z,966.42
2019-05-25T15:02:05.953Z,1405.40
2019-05-25T15:04:34.985Z,984.47
2019-05-25T15:07:04.336Z,1107.33
2019-05-25T15:09:34.718Z,930.70
2019-05-25T15:12:03.818Z,984.73
2019-05-25T15:14:33.059Z,1021.02
2019-05-25T15:17:02.206Z,972.02
2019-05-25T15:19:31.235Z,1063.83
2019-05-25T15:22:00.290Z,985.50
2019-05-25T15:24:29.581Z,1073.38
2019-05-25T15:26:59.318Z,976.10
2019-05-25T15:29:28.419Z,1045.78
2019-05-25T15:31:57.446Z,1056.08
2019-05-25T15:34:26.953Z,1043.88
2019-05-25T15:36:56.001Z,973.38
2019-05-25T15:39:25.436Z,1017.10
2019-05-25T15:41:54.436Z,1046.35
2019-05-25T15:44:23.897Z,1000.87
2019-05-25T15:46:53.155Z,1004.32
2019-05-25T15:49:32.836Z,1024.43
2019-05-25T15:51:53.736Z,993.28
2019-05-25T15:54:23.154Z,1022.75
2019-05-25T15:56:52.205Z,1009.67
2019-05-25T15:59:23.525Z,1033.15
2019-05-25T16:02:17.233Z,1028.03
2019-05-25T16:04:46.332Z,1020.42
2019-05-25T16:07:16.531Z,962.05
2019-05-25T16:09:46.097Z,1026.15
2019-05-25T16:12:15.812Z,1008.97
2019-05-25T16:14:44.870Z,1026.08
2019-05-25T16:17:14.802Z,1047.08
2019-05-25T16:19:43.879Z,1052.22
2019-05-25T16:22:13.626Z,1027.65
2019-05-25T16:24:42.661Z,1077.47
2019-05-25T16:27:11.722Z,991.47
2019-05-25T16:29:40.775Z,1068.98
2019-05-25T16:32:10.679Z,1064.35
2019-05-25T16:34:39.724Z,1048.10
2019-05-25T16:37:09.226Z,1049.50
2019-05-25T16:39:38.489Z,1067.78
2019-05-25T16:42:08.524Z,1074.85
2019-05-25T16:44:38.562Z,1029.33
2019-05-25T16:47:08.140Z,1049.80
2019-05-25T16:49:37.490Z,1077.97
2019-05-25T16:52:06.640Z,1013.95
2019-05-25T16:54:35.728Z,1113.80
2019-05-25T16:57:05.498Z,1087.10
2019-05-25T16:59:34.563Z,1080.95
2019-05-25T17:02:03.675Z,1028.48
2019-05-25T17:04:32.731Z,1071.03
2019-05-25T17:07:01.880Z,1050.83
2019-05-25T17:09:31.649Z,1084.23
2019-05-25T17:12:00.704Z,1038.63
2019-05-25T17:14:30.000Z,1055.38
2019-05-25T17:16:59.165Z,1023.23
2019-05-25T17:19:28.198Z,1082.63
2019-05-25T17:21:57.403Z,1053.25
2019-05-25T17:24:26.453Z,1051.47
2019-05-25T17:26:55.507Z,1083.83
2019-05-25T17:29:24.543Z,1060.30
2019-05-25T17:31:54.179Z,1158.95
2019-05-25T17:34:23.958Z,1100.55
2019-05-25T17:36:53.651Z,1110.98
2019-05-25T17:39:23.269Z,1087.18
2019-05-25T17:41:53.448Z,1107.08
2019-05-25T17:44:22.712Z,1105.83
2019-05-25T17:46:52.219Z,1082.00
2019-05-25T17:49:21.501Z,1110.33
2019-05-25T17:51:50.711Z,1070.03
2019-05-25T17:54:19.713Z,1066.70
2019-05-25T17:56:49.091Z,1143.13
2019-05-25T17:59:18.236Z,1061.47
2019-05-25T18:01:47.328Z,1078.58
2019-05-25T18:04:17.196Z,1106.13
2019-05-25T18:06:46.362Z,1145.78
2019-05-25T18:09:15.401Z,1079.70
2019-05-25T18:11:44.825Z,1068.88
2019-05-25T18:14:16.661Z,1124.50
2019-05-25T18:16:45.738Z,1109.08
2019-05-25T18:19:15.399Z,1170.65
2019-05-25T18:21:44.909Z,1138.80
2019-05-25T18:24:14.236Z,1123.63
2019-05-25T18:26:43.283Z,1127.47
2019-05-25T18:29:12.321Z,1158.37
2019-05-25T18:31:42.251Z,1139.47
2019-05-25T18:34:21.758Z,1151.37
2019-05-25T18:36:42.605Z,1150.03
2019-05-25T18:39:11.830Z,1130.07
2019-05-25T18:41:40.928Z,1129.77
2019-05-25T18:44:09.936Z,1144.13
2019-05-25T18:46:38.986Z,1173.43
2019-05-25T18:49:08.015Z,1147.70
2019-05-25T18:51:37.062Z,1175.60
2019-05-25T18:54:07.998Z,1157.87
2019-05-25T18:56:37.164Z,1137.43
2019-05-25T18:59:06.203Z,1165.70
2019-05-25T19:01:35.221Z,1131.10
2019-05-25T19:04:04.277Z,1143.50
2019-05-25T19:06:33.599Z,1126.60
2019-05-25T19:09:03.672Z,1160.90
2019-05-25T19:11:35.742Z,1143.37
2019-05-25T19:14:03.440Z,1107.03
2019-05-25T19:16:33.034Z,1093.53
2019-05-25T19:19:02.372Z,1141.27
2019-05-25T19:21:31.737Z,1112.17
2019-05-25T19:24:01.511Z,1093.53
2019-05-25T19:26:30.530Z,1091.03
2019-05-25T19:28:59.624Z,1076.90
2019-05-25T19:31:28.665Z,1108.93
2019-05-25T19:33:58.285Z,1096.83
2019-05-25T19:36:28.757Z,1102.47
2019-05-25T19:38:57.797Z,1099.03
2019-05-25T19:41:26.828Z,1079.13
2019-05-25T19:43:56.231Z,1096.57
2019-05-25T19:46:25.276Z,1070.43
2019-05-25T19:48:54.315Z,1070.07
2019-05-25T19:51:23.361Z,1056.43
2019-05-25T19:53:52.485Z,1058.23
2019-05-25T19:56:21.502Z,1043.30
2019-05-25T19:58:51.920Z,1040.27
2019-05-25T20:01:21.488Z,1063.60
2019-05-25T20:03:50.581Z,1088.67
2019-05-25T20:06:19.701Z,1062.57
2019-05-25T20:08:48.858Z,1053.33
2019-05-25T20:11:18.008Z,1050.83
2019-05-25T20:13:46.986Z,1065.73
2019-05-25T20:16:16.959Z,992.00
2019-05-25T20:18:46.021Z,1032.93
2019-05-25T20:21:15.094Z,1009.40
2019-05-25T20:23:44.141Z,1015.47
2019-05-25T20:26:13.203Z,1048.23
2019-05-25T20:28:42.866Z,990.03
2019-05-25T20:31:11.885Z,997.43
2019-05-25T20:33:40.924Z,1025.53
2019-05-25T20:36:10.786Z,1032.70
2019-05-25T20:38:39.840Z,1061.93
2019-05-25T20:41:08.885Z,1013.07
2019-05-25T20:43:37.950Z,1017.63
2019-05-25T20:46:07.502Z,1022.33
2019-05-25T20:48:36.815Z,1000.43
2019-05-25T20:51:05.847Z,1007.40
2019-05-25T20:53:34.881Z,1019.57
2019-05-25T20:56:03.952Z,1020.27
2019-05-25T20:58:33.069Z,1051.67
2019-05-25T21:01:03.078Z,1057.30
2019-05-25T21:03:32.840Z,1063.30
2019-05-25T21:06:02.019Z,1066.53
2019-05-25T21:08:31.764Z,1048.67
2019-05-25T21:11:00.835Z,1043.37
2019-05-25T21:13:30.321Z,1047.70
2019-05-25T21:16:00.228Z,1055.63
2019-05-25T21:18:29.251Z,1066.57
2019-05-25T21:20:58.399Z,1034.87
2019-05-25T21:23:27.456Z,1065.90
2019-05-25T21:25:56.695Z,1055.57
2019-05-25T21:28:26.472Z,1080.50
2019-05-25T21:30:55.525Z,1077.07
2019-05-25T21:33:24.934Z,1066.77
2019-05-25T21:36:07.733Z,1083.10
2019-05-25T21:38:25.387Z,1071.30
2019-05-25T21:40:55.024Z,1090.07
2019-05-25T21:43:24.078Z,1078.83
2019-05-25T21:45:53.211Z,1104.23
2019-05-25T21:48:22.256Z,1118.37
2019-05-25T21:50:51.559Z,1124.37
2019-05-25T21:53:20.665Z,1064.80
2019-05-25T21:55:49.723Z,1088.63
2019-05-25T21:58:18.813Z,1082.33
2019-05-25T22:00:49.688Z,1121.93
2019-05-25T22:03:19.168Z,1094.03
2019-05-25T22:05:49.075Z,1116.73
2019-05-25T22:08:18.099Z,1088.70
2019-05-25T22:10:48.031Z,1120.50
2019-05-25T22:13:27.947Z,1122.83
2019-05-25T22:15:48.506Z,1087.43
2019-05-25T22:18:17.553Z,1129.17
2019-05-25T22:20:46.595Z,1111.63
2019-05-25T22:23:16.457Z,1099.30
2019-05-25T22:25:45.548Z,1126.87
2019-05-25T22:28:14.584Z,1117.70
2019-05-25T22:30:43.615Z,1114.40
2019-05-25T22:33:12.651Z,1110.47
2019-05-25T22:35:42.650Z,1089.97
2019-05-25T22:38:11.751Z,1091.27
2019-05-25T22:40:40.822Z,1093.70
2019-05-25T22:43:09.868Z,1083.03
2019-05-25T22:45:39.626Z,1099.50
2019-05-25T22:48:09.610Z,1138.77
2019-05-25T22:50:39.285Z,1111.37
2019-05-25T22:53:08.400Z,1119.43
2019-05-25T22:55:37.429Z,1087.17
2019-05-25T22:58:06.460Z,1109.60
2019-05-25T23:00:35.493Z,1083.07
2019-05-25T23:03:05.419Z,1111.30
2019-05-25T23:05:35.212Z,1133.40
2019-05-25T23:08:04.368Z,1149.20
2019-05-25T23:10:33.780Z,1167.50
2019-05-25T23:13:04.155Z,1117.37
2019-05-25T23:15:33.159Z,1137.60
2019-05-25T23:18:02.243Z,1115.43
2019-05-25T23:20:31.893Z,1130.47
2019-05-25T23:23:00.949Z,1158.23
2019-05-25T23:25:30.023Z,1107.50
2019-05-25T23:27:59.083Z,1078.50
2019-05-25T23:30:28.102Z,1090.53
2019-05-25T23:32:58.673Z,1128.27
2019-05-25T23:35:27.794Z,1122.17
2019-05-25T23:37:56.859Z,1149.37
2019-05-25T23:40:26.120Z,1146.27
2019-05-25T23:42:55.737Z,1128.47
2019-05-25T23:45:25.649Z,1084.07
2019-05-25T23:47:54.740Z,1099.70
2019-05-25T23:50:24.474Z,1087.30
2019-05-25T23:52:54.151Z,1108.13
2019-05-25T23:55:23.190Z,1130.03
2019-05-25T23:57:52.800Z,1070.87
